sensor_id;sensor_type;location;lat;lon;timestamp;temperature;humidity
77839;SHT31;67034;43.226;27.932;2023-11-21T00:01:44;9.33;75.15
77839;SHT31;67034;43.226;27.932;2023-11-21T00:04:11;9.42;74.76
77839;SHT31;67034;43.226;27.932;2023-11-21T00:06:37;9.54;73.98
77839;SHT31;67034;43.226;27.932;2023-11-21T00:09:02;9.64;73.75
77839;SHT31;67034;43.226;27.932;2023-11-21T00:11:28;9.74;73.32
77839;SHT31;67034;43.226;27.932;2023-11-21T00:13:54;9.87;73.00
77839;SHT31;67034;43.226;27.932;2023-11-21T00:16:20;9.87;71.55
77839;SHT31;67034;43.226;27.932;2023-11-21T00:18:47;9.77;71.36
77839;SHT31;67034;43.226;27.932;2023-11-21T00:21:14;9.50;71.12
77839;SHT31;67034;43.226;27.932;2023-11-21T00:23:40;9.26;71.11
77839;SHT31;67034;43.226;27.932;2023-11-21T00:26:06;8.95;71.10
77839;SHT31;67034;43.226;27.932;2023-11-21T00:28:32;8.72;71.55
77839;SHT31;67034;43.226;27.932;2023-11-21T00:30:58;8.58;72.00
77839;SHT31;67034;43.226;27.932;2023-11-21T00:33:23;8.53;72.22
77839;SHT31;67034;43.226;27.932;2023-11-21T00:35:50;8.55;72.22
77839;SHT31;67034;43.226;27.932;2023-11-21T00:38:17;8.58;72.12
77839;SHT31;67034;43.226;27.932;2023-11-21T00:40:45;8.60;71.96
77839;SHT31;67034;43.226;27.932;2023-11-21T00:43:11;8.54;72.00
77839;SHT31;67034;43.226;27.932;2023-11-21T00:45:36;8.53;72.15
77839;SHT31;67034;43.226;27.932;2023-11-21T00:48:02;8.34;72.46
77839;SHT31;67034;43.226;27.932;2023-11-21T00:50:30;8.20;72.78
77839;SHT31;67034;43.226;27.932;2023-11-21T00:52:55;8.12;73.03
77839;SHT31;67034;43.226;27.932;2023-11-21T00:55:23;8.05;73.20
77839;SHT31;67034;43.226;27.932;2023-11-21T00:57:48;8.00;73.45
77839;SHT31;67034;43.226;27.932;2023-11-21T01:00:14;7.93;73.59
77839;SHT31;67034;43.226;27.932;2023-11-21T01:02:42;7.93;73.70
77839;SHT31;67034;43.226;27.932;2023-11-21T01:05:09;7.90;73.80
77839;SHT31;67034;43.226;27.932;2023-11-21T01:07:36;7.86;73.87
77839;SHT31;67034;43.226;27.932;2023-11-21T01:10:02;7.85;73.98
77839;SHT31;67034;43.226;27.932;2023-11-21T01:12:29;7.81;74.20
77839;SHT31;67034;43.226;27.932;2023-11-21T01:14:55;7.82;74.22
77839;SHT31;67034;43.226;27.932;2023-11-21T01:17:20;7.81;74.17
77839;SHT31;67034;43.226;27.932;2023-11-21T01:19:48;7.81;74.20
77839;SHT31;67034;43.226;27.932;2023-11-21T01:22:13;7.90;74.05
77839;SHT31;67034;43.226;27.932;2023-11-21T01:24:39;7.83;74.10
77839;SHT31;67034;43.226;27.932;2023-11-21T01:27:05;7.79;74.28
77839;SHT31;67034;43.226;27.932;2023-11-21T01:29:32;7.83;74.33
77839;SHT31;67034;43.226;27.932;2023-11-21T01:31:58;7.83;74.37
77839;SHT31;67034;43.226;27.932;2023-11-21T01:34:23;7.86;74.27
77839;SHT31;67034;43.226;27.932;2023-11-21T01:36:49;7.86;73.99
77839;SHT31;67034;43.226;27.932;2023-11-21T01:39:15;7.87;74.01
77839;SHT31;67034;43.226;27.932;2023-11-21T01:41:42;7.86;73.80
77839;SHT31;67034;43.226;27.932;2023-11-21T01:44:09;7.87;73.82
77839;SHT31;67034;43.226;27.932;2023-11-21T01:46:36;7.87;73.72
77839;SHT31;67034;43.226;27.932;2023-11-21T01:49:04;7.89;73.54
77839;SHT31;67034;43.226;27.932;2023-11-21T01:51:30;7.76;73.46
77839;SHT31;67034;43.226;27.932;2023-11-21T01:53:57;7.71;73.62
77839;SHT31;67034;43.226;27.932;2023-11-21T01:56:22;7.62;73.80
77839;SHT31;67034;43.226;27.932;2023-11-21T01:58:48;7.59;73.90
77839;SHT31;67034;43.226;27.932;2023-11-21T02:01:14;7.58;73.98
77839;SHT31;67034;43.226;27.932;2023-11-21T02:03:41;7.47;73.97
77839;SHT31;67034;43.226;27.932;2023-11-21T02:06:07;7.28;74.20
77839;SHT31;67034;43.226;27.932;2023-11-21T02:08:34;7.18;74.40
77839;SHT31;67034;43.226;27.932;2023-11-21T02:10:59;7.08;74.60
77839;SHT31;67034;43.226;27.932;2023-11-21T02:13:25;7.04;74.80
77839;SHT31;67034;43.226;27.932;2023-11-21T02:15:51;7.03;75.24
77839;SHT31;67034;43.226;27.932;2023-11-21T02:18:20;7.03;75.24
77839;SHT31;67034;43.226;27.932;2023-11-21T02:20:49;7.08;75.29
77839;SHT31;67034;43.226;27.932;2023-11-21T02:23:16;7.20;75.46
77839;SHT31;67034;43.226;27.932;2023-11-21T02:25:41;7.28;75.43
77839;SHT31;67034;43.226;27.932;2023-11-21T02:28:08;7.41;75.20
77839;SHT31;67034;43.226;27.932;2023-11-21T02:30:33;7.56;74.90
77839;SHT31;67034;43.226;27.932;2023-11-21T02:32:59;7.66;74.55
77839;SHT31;67034;43.226;27.932;2023-11-21T02:35:25;7.76;74.27
77839;SHT31;67034;43.226;27.932;2023-11-21T02:37:54;7.81;73.98
77839;SHT31;67034;43.226;27.932;2023-11-21T02:40:21;7.83;73.60
77839;SHT31;67034;43.226;27.932;2023-11-21T02:42:46;7.78;73.54
77839;SHT31;67034;43.226;27.932;2023-11-21T02:45:12;7.78;73.62
77839;SHT31;67034;43.226;27.932;2023-11-21T02:47:40;7.72;73.43
77839;SHT31;67034;43.226;27.932;2023-11-21T02:50:05;7.65;73.66
77839;SHT31;67034;43.226;27.932;2023-11-21T02:52:33;7.66;73.74
77839;SHT31;67034;43.226;27.932;2023-11-21T02:54:59;7.79;73.73
77839;SHT31;67034;43.226;27.932;2023-11-21T02:57:26;7.93;73.53
77839;SHT31;67034;43.226;27.932;2023-11-21T02:59:52;8.07;73.30
77839;SHT31;67034;43.226;27.932;2023-11-21T03:02:17;8.20;73.00
77839;SHT31;67034;43.226;27.932;2023-11-21T03:04:43;8.24;72.76
77839;SHT31;67034;43.226;27.932;2023-11-21T03:07:08;8.32;72.52
77839;SHT31;67034;43.226;27.932;2023-11-21T03:09:34;8.34;72.36
77839;SHT31;67034;43.226;27.932;2023-11-21T03:12:00;8.43;72.29
77839;SHT31;67034;43.226;27.932;2023-11-21T03:14:27;8.38;71.98
77839;SHT31;67034;43.226;27.932;2023-11-21T03:16:53;8.50;71.87
77839;SHT31;67034;43.226;27.932;2023-11-21T03:19:18;8.38;71.48
77839;SHT31;67034;43.226;27.932;2023-11-21T03:21:44;8.23;71.99
77839;SHT31;67034;43.226;27.932;2023-11-21T03:24:10;8.10;72.16
77839;SHT31;67034;43.226;27.932;2023-11-21T03:26:35;8.06;72.41
77839;SHT31;67034;43.226;27.932;2023-11-21T03:29:03;7.92;72.56
77839;SHT31;67034;43.226;27.932;2023-11-21T03:31:34;7.83;72.70
77839;SHT31;67034;43.226;27.932;2023-11-21T03:34:00;7.71;72.85
77839;SHT31;67034;43.226;27.932;2023-11-21T03:36:25;7.66;73.19
77839;SHT31;67034;43.226;27.932;2023-11-21T03:38:51;7.62;73.30
77839;SHT31;67034;43.226;27.932;2023-11-21T03:41:17;7.71;73.33
77839;SHT31;67034;43.226;27.932;2023-11-21T03:43:42;7.79;73.22
77839;SHT31;67034;43.226;27.932;2023-11-21T03:46:08;7.93;73.14
77839;SHT31;67034;43.226;27.932;2023-11-21T03:48:35;8.17;72.69
77839;SHT31;67034;43.226;27.932;2023-11-21T03:51:01;8.40;72.08
77839;SHT31;67034;43.226;27.932;2023-11-21T03:53:26;8.64;71.58
77839;SHT31;67034;43.226;27.932;2023-11-21T03:55:52;8.82;70.94
77839;SHT31;67034;43.226;27.932;2023-11-21T03:58:17;8.98;70.62
77839;SHT31;67034;43.226;27.932;2023-11-21T04:00:43;9.11;70.13
77839;SHT31;67034;43.226;27.932;2023-11-21T04:03:09;9.19;69.53
77839;SHT31;67034;43.226;27.932;2023-11-21T04:05:36;9.29;69.21
77839;SHT31;67034;43.226;27.932;2023-11-21T04:08:01;9.30;68.55
77839;SHT31;67034;43.226;27.932;2023-11-21T04:10:27;9.29;68.35
77839;SHT31;67034;43.226;27.932;2023-11-21T04:12:53;9.23;68.46
77839;SHT31;67034;43.226;27.932;2023-11-21T04:15:18;9.13;68.63
77839;SHT31;67034;43.226;27.932;2023-11-21T04:17:44;9.13;68.76
77839;SHT31;67034;43.226;27.932;2023-11-21T04:20:11;9.08;68.91
77839;SHT31;67034;43.226;27.932;2023-11-21T04:22:39;9.13;68.99
77839;SHT31;67034;43.226;27.932;2023-11-21T04:25:08;9.13;68.79
77839;SHT31;67034;43.226;27.932;2023-11-21T04:27:33;9.11;68.60
77839;SHT31;67034;43.226;27.932;2023-11-21T04:30:00;8.91;69.07
77839;SHT31;67034;43.226;27.932;2023-11-21T04:32:25;8.81;69.36
77839;SHT31;67034;43.226;27.932;2023-11-21T04:34:51;8.67;69.51
77839;SHT31;67034;43.226;27.932;2023-11-21T04:37:17;8.64;69.76
77839;SHT31;67034;43.226;27.932;2023-11-21T04:39:44;8.53;69.76
77839;SHT31;67034;43.226;27.932;2023-11-21T04:42:09;8.40;70.01
77839;SHT31;67034;43.226;27.932;2023-11-21T04:44:35;8.27;70.41
77839;SHT31;67034;43.226;27.932;2023-11-21T04:47:01;8.19;70.58
77839;SHT31;67034;43.226;27.932;2023-11-21T04:49:27;7.95;70.99
77839;SHT31;67034;43.226;27.932;2023-11-21T04:51:52;7.87;71.38
77839;SHT31;67034;43.226;27.932;2023-11-21T04:54:18;7.86;71.54
77839;SHT31;67034;43.226;27.932;2023-11-21T04:56:45;7.71;71.85
77839;SHT31;67034;43.226;27.932;2023-11-21T04:59:11;7.68;72.21
77839;SHT31;67034;43.226;27.932;2023-11-21T05:01:36;7.74;72.31
77839;SHT31;67034;43.226;27.932;2023-11-21T05:04:02;7.82;72.15
77839;SHT31;67034;43.226;27.932;2023-11-21T05:06:28;7.79;72.08
77839;SHT31;67034;43.226;27.932;2023-11-21T05:08:54;7.75;72.14
77839;SHT31;67034;43.226;27.932;2023-11-21T05:11:24;7.87;72.14
77839;SHT31;67034;43.226;27.932;2023-11-21T05:13:51;7.96;72.00
77839;SHT31;67034;43.226;27.932;2023-11-21T05:16:17;8.03;71.89
77839;SHT31;67034;43.226;27.932;2023-11-21T05:18:42;8.26;71.51
77839;SHT31;67034;43.226;27.932;2023-11-21T05:21:08;8.48;70.95
77839;SHT31;67034;43.226;27.932;2023-11-21T05:23:35;8.72;70.25
77839;SHT31;67034;43.226;27.932;2023-11-21T05:26:00;8.93;69.48
77839;SHT31;67034;43.226;27.932;2023-11-21T05:28:26;9.16;68.74
77839;SHT31;67034;43.226;27.932;2023-11-21T05:30:53;9.36;67.97
77839;SHT31;67034;43.226;27.932;2023-11-21T05:33:20;9.51;67.41
77839;SHT31;67034;43.226;27.932;2023-11-21T05:35:45;9.69;67.09
77839;SHT31;67034;43.226;27.932;2023-11-21T05:38:11;9.75;66.56
77839;SHT31;67034;43.226;27.932;2023-11-21T05:40:37;9.85;66.32
77839;SHT31;67034;43.226;27.932;2023-11-21T05:43:03;9.91;66.37
77839;SHT31;67034;43.226;27.932;2023-11-21T05:45:31;10.01;65.90
77839;SHT31;67034;43.226;27.932;2023-11-21T05:47:58;10.12;65.48
77839;SHT31;67034;43.226;27.932;2023-11-21T05:50:24;10.25;65.19
77839;SHT31;67034;43.226;27.932;2023-11-21T05:52:52;10.39;64.73
77839;SHT31;67034;43.226;27.932;2023-11-21T05:55:18;10.49;64.33
77839;SHT31;67034;43.226;27.932;2023-11-21T05:57:46;10.59;63.85
77839;SHT31;67034;43.226;27.932;2023-11-21T06:00:13;10.67;63.74
77839;SHT31;67034;43.226;27.932;2023-11-21T06:02:47;10.79;62.96
77839;SHT31;67034;43.226;27.932;2023-11-21T06:05:14;10.87;62.48
77839;SHT31;67034;43.226;27.932;2023-11-21T06:07:40;11.03;62.09
77839;SHT31;67034;43.226;27.932;2023-11-21T06:10:08;11.22;61.81
77839;SHT31;67034;43.226;27.932;2023-11-21T06:12:36;11.29;60.78
77839;SHT31;67034;43.226;27.932;2023-11-21T06:15:02;11.45;60.86
77839;SHT31;67034;43.226;27.932;2023-11-21T06:17:30;11.46;60.89
77839;SHT31;67034;43.226;27.932;2023-11-21T06:19:56;11.11;61.27
77839;SHT31;67034;43.226;27.932;2023-11-21T06:22:23;10.71;62.31
77839;SHT31;67034;43.226;27.932;2023-11-21T06:24:50;10.43;63.11
77839;SHT31;67034;43.226;27.932;2023-11-21T06:27:15;10.32;63.63
77839;SHT31;67034;43.226;27.932;2023-11-21T06:29:41;10.18;64.07
77839;SHT31;67034;43.226;27.932;2023-11-21T06:32:07;10.16;64.25
77839;SHT31;67034;43.226;27.932;2023-11-21T06:34:33;10.03;64.68
77839;SHT31;67034;43.226;27.932;2023-11-21T06:37:00;9.97;65.13
77839;SHT31;67034;43.226;27.932;2023-11-21T06:39:27;10.02;65.31
77839;SHT31;67034;43.226;27.932;2023-11-21T06:41:53;10.06;65.22
77839;SHT31;67034;43.226;27.932;2023-11-21T06:44:20;10.23;65.03
77839;SHT31;67034;43.226;27.932;2023-11-21T06:46:45;10.38;64.85
77839;SHT31;67034;43.226;27.932;2023-11-21T06:49:11;10.48;64.54
77839;SHT31;67034;43.226;27.932;2023-11-21T06:51:37;10.57;63.96
77839;SHT31;67034;43.226;27.932;2023-11-21T06:54:03;10.63;63.75
77839;SHT31;67034;43.226;27.932;2023-11-21T06:56:30;10.71;63.33
77839;SHT31;67034;43.226;27.932;2023-11-21T06:58:56;10.94;63.29
77839;SHT31;67034;43.226;27.932;2023-11-21T07:01:21;11.06;62.77
77839;SHT31;67034;43.226;27.932;2023-11-21T07:03:47;11.22;62.38
77839;SHT31;67034;43.226;27.932;2023-11-21T07:06:13;11.40;61.70
77839;SHT31;67034;43.226;27.932;2023-11-21T07:08:39;11.55;61.14
77839;SHT31;67034;43.226;27.932;2023-11-21T07:11:05;11.66;60.97
77839;SHT31;67034;43.226;27.932;2023-11-21T07:13:32;11.82;60.32
77839;SHT31;67034;43.226;27.932;2023-11-21T07:15:59;11.90;60.24
77839;SHT31;67034;43.226;27.932;2023-11-21T07:18:25;12.06;59.68
77839;SHT31;67034;43.226;27.932;2023-11-21T07:20:51;12.25;59.34
77839;SHT31;67034;43.226;27.932;2023-11-21T07:23:17;12.37;58.99
77839;SHT31;67034;43.226;27.932;2023-11-21T07:25:43;12.58;58.43
77839;SHT31;67034;43.226;27.932;2023-11-21T07:28:08;12.81;58.44
77839;SHT31;67034;43.226;27.932;2023-11-21T07:30:36;12.97;57.35
77839;SHT31;67034;43.226;27.932;2023-11-21T07:33:02;13.14;57.16
77839;SHT31;67034;43.226;27.932;2023-11-21T07:35:27;13.34;56.27
77839;SHT31;67034;43.226;27.932;2023-11-21T07:37:53;13.43;55.35
77839;SHT31;67034;43.226;27.932;2023-11-21T07:40:19;13.48;55.38
77839;SHT31;67034;43.226;27.932;2023-11-21T07:42:47;13.57;55.18
77839;SHT31;67034;43.226;27.932;2023-11-21T07:45:14;13.70;55.14
77839;SHT31;67034;43.226;27.932;2023-11-21T07:47:42;13.86;54.39
77839;SHT31;67034;43.226;27.932;2023-11-21T07:50:08;14.04;54.36
77839;SHT31;67034;43.226;27.932;2023-11-21T07:52:34;14.06;53.63
77839;SHT31;67034;43.226;27.932;2023-11-21T07:55:00;14.10;53.23
77839;SHT31;67034;43.226;27.932;2023-11-21T07:57:28;14.13;53.81
77839;SHT31;67034;43.226;27.932;2023-11-21T07:59:55;14.22;53.77
77839;SHT31;67034;43.226;27.932;2023-11-21T08:02:21;14.33;53.98
77839;SHT31;67034;43.226;27.932;2023-11-21T08:04:48;14.29;53.47
77839;SHT31;67034;43.226;27.932;2023-11-21T08:07:15;14.19;53.47
77839;SHT31;67034;43.226;27.932;2023-11-21T08:09:40;14.10;53.81
77839;SHT31;67034;43.226;27.932;2023-11-21T08:12:07;14.23;53.18
77839;SHT31;67034;43.226;27.932;2023-11-21T08:14:33;14.44;53.19
77839;SHT31;67034;43.226;27.932;2023-11-21T08:16:58;14.59;52.73
77839;SHT31;67034;43.226;27.932;2023-11-21T08:19:24;14.70;52.09
77839;SHT31;67034;43.226;27.932;2023-11-21T08:21:54;14.76;51.86
77839;SHT31;67034;43.226;27.932;2023-11-21T08:24:20;14.85;51.53
77839;SHT31;67034;43.226;27.932;2023-11-21T08:26:46;14.97;51.44
77839;SHT31;67034;43.226;27.932;2023-11-21T08:29:12;15.15;51.51
77839;SHT31;67034;43.226;27.932;2023-11-21T08:31:37;15.22;51.55
77839;SHT31;67034;43.226;27.932;2023-11-21T08:34:04;15.09;51.51
77839;SHT31;67034;43.226;27.932;2023-11-21T08:36:29;15.01;51.73
77839;SHT31;67034;43.226;27.932;2023-11-21T08:38:58;14.95;51.67
77839;SHT31;67034;43.226;27.932;2023-11-21T08:41:24;14.97;52.15
77839;SHT31;67034;43.226;27.932;2023-11-21T08:43:50;15.01;52.07
77839;SHT31;67034;43.226;27.932;2023-11-21T08:46:16;15.07;51.69
77839;SHT31;67034;43.226;27.932;2023-11-21T08:48:43;15.12;51.49
77839;SHT31;67034;43.226;27.932;2023-11-21T08:51:10;15.18;51.41
77839;SHT31;67034;43.226;27.932;2023-11-21T08:53:37;15.15;50.33
77839;SHT31;67034;43.226;27.932;2023-11-21T08:56:05;15.14;50.30
77839;SHT31;67034;43.226;27.932;2023-11-21T08:58:31;15.25;50.66
77839;SHT31;67034;43.226;27.932;2023-11-21T09:00:58;15.49;49.96
77839;SHT31;67034;43.226;27.932;2023-11-21T09:03:24;15.74;49.44
77839;SHT31;67034;43.226;27.932;2023-11-21T09:05:50;15.96;48.51
77839;SHT31;67034;43.226;27.932;2023-11-21T09:08:16;16.18;47.93
77839;SHT31;67034;43.226;27.932;2023-11-21T09:10:42;16.34;47.43
77839;SHT31;67034;43.226;27.932;2023-11-21T09:13:11;16.52;47.10
77839;SHT31;67034;43.226;27.932;2023-11-21T09:15:37;16.71;47.02
77839;SHT31;67034;43.226;27.932;2023-11-21T09:18:03;16.94;46.52
77839;SHT31;67034;43.226;27.932;2023-11-21T09:20:30;17.03;46.35
77839;SHT31;67034;43.226;27.932;2023-11-21T09:22:56;17.27;46.36
77839;SHT31;67034;43.226;27.932;2023-11-21T09:25:23;17.38;45.92
77839;SHT31;67034;43.226;27.932;2023-11-21T09:27:48;17.51;45.67
77839;SHT31;67034;43.226;27.932;2023-11-21T09:30:16;17.75;45.52
77839;SHT31;67034;43.226;27.932;2023-11-21T09:32:42;17.75;45.10
77839;SHT31;67034;43.226;27.932;2023-11-21T09:35:11;17.72;44.57
77839;SHT31;67034;43.226;27.932;2023-11-21T09:37:39;17.52;44.32
77839;SHT31;67034;43.226;27.932;2023-11-21T09:40:06;17.54;44.83
77839;SHT31;67034;43.226;27.932;2023-11-21T09:42:39;17.41;44.62
77839;SHT31;67034;43.226;27.932;2023-11-21T09:45:13;17.28;44.95
77839;SHT31;67034;43.226;27.932;2023-11-21T09:47:43;17.27;45.14
77839;SHT31;67034;43.226;27.932;2023-11-21T09:50:09;17.13;45.29
77839;SHT31;67034;43.226;27.932;2023-11-21T09:52:44;17.13;45.28
77839;SHT31;67034;43.226;27.932;2023-11-21T09:55:13;17.11;45.29
77839;SHT31;67034;43.226;27.932;2023-11-21T09:57:41;17.31;45.32
77839;SHT31;67034;43.226;27.932;2023-11-21T10:00:08;17.55;44.65
77839;SHT31;67034;43.226;27.932;2023-11-21T10:02:38;17.81;43.98
77839;SHT31;67034;43.226;27.932;2023-11-21T10:05:07;18.03;43.27
77839;SHT31;67034;43.226;27.932;2023-11-21T10:07:39;18.03;43.33
77839;SHT31;67034;43.226;27.932;2023-11-21T10:10:07;17.92;43.07
77839;SHT31;67034;43.226;27.932;2023-11-21T10:12:35;17.52;43.55
77839;SHT31;67034;43.226;27.932;2023-11-21T10:15:03;17.37;44.11
77839;SHT31;67034;43.226;27.932;2023-11-21T10:17:32;17.19;44.29
77839;SHT31;67034;43.226;27.932;2023-11-21T10:20:11;17.02;44.66
77839;SHT31;67034;43.226;27.932;2023-11-21T10:22:37;16.86;44.76
77839;SHT31;67034;43.226;27.932;2023-11-21T10:25:05;17.14;44.62
77839;SHT31;67034;43.226;27.932;2023-11-21T10:27:33;17.07;44.38
77839;SHT31;67034;43.226;27.932;2023-11-21T10:30:00;16.87;44.64
77839;SHT31;67034;43.226;27.932;2023-11-21T10:32:28;16.97;44.49
77839;SHT31;67034;43.226;27.932;2023-11-21T10:34:57;17.04;44.52
77839;SHT31;67034;43.226;27.932;2023-11-21T10:37:25;17.31;44.48
77839;SHT31;67034;43.226;27.932;2023-11-21T10:39:55;17.72;43.38
77839;SHT31;67034;43.226;27.932;2023-11-21T10:42:22;18.09;42.62
77839;SHT31;67034;43.226;27.932;2023-11-21T10:44:50;18.20;42.10
77839;SHT31;67034;43.226;27.932;2023-11-21T10:47:16;18.48;41.24
77839;SHT31;67034;43.226;27.932;2023-11-21T10:49:44;18.75;41.08
77839;SHT31;67034;43.226;27.932;2023-11-21T10:52:12;19.20;40.55
77839;SHT31;67034;43.226;27.932;2023-11-21T10:54:44;19.71;38.69
77839;SHT31;67034;43.226;27.932;2023-11-21T10:57:10;19.67;38.02
77839;SHT31;67034;43.226;27.932;2023-11-21T10:59:36;19.97;38.44
77839;SHT31;67034;43.226;27.932;2023-11-21T11:02:16;19.83;37.67
77839;SHT31;67034;43.226;27.932;2023-11-21T11:04:47;19.77;38.19
77839;SHT31;67034;43.226;27.932;2023-11-21T11:07:14;20.20;37.66
77839;SHT31;67034;43.226;27.932;2023-11-21T11:09:41;20.68;36.90
77839;SHT31;67034;43.226;27.932;2023-11-21T11:12:11;20.83;36.19
77839;SHT31;67034;43.226;27.932;2023-11-21T11:14:40;21.03;36.34
77839;SHT31;67034;43.226;27.932;2023-11-21T11:17:07;21.40;36.58
77839;SHT31;67034;43.226;27.932;2023-11-21T11:19:34;21.47;36.11
77839;SHT31;67034;43.226;27.932;2023-11-21T11:22:08;21.61;36.05
77839;SHT31;67034;43.226;27.932;2023-11-21T11:24:49;21.98;35.26
77839;SHT31;67034;43.226;27.932;2023-11-21T11:27:29;22.33;35.14
77839;SHT31;67034;43.226;27.932;2023-11-21T11:30:00;22.17;34.27
77839;SHT31;67034;43.226;27.932;2023-11-21T11:32:36;22.05;34.30
77839;SHT31;67034;43.226;27.932;2023-11-21T11:35:10;21.95;33.69
77839;SHT31;67034;43.226;27.932;2023-11-21T11:37:42;22.09;34.19
77839;SHT31;67034;43.226;27.932;2023-11-21T11:40:11;22.30;33.78
77839;SHT31;67034;43.226;27.932;2023-11-21T11:42:38;22.33;33.11
77839;SHT31;67034;43.226;27.932;2023-11-21T11:45:17;22.30;32.70
77839;SHT31;67034;43.226;27.932;2023-11-21T11:47:43;22.27;33.67
77839;SHT31;67034;43.226;27.932;2023-11-21T11:50:10;22.24;33.16
77839;SHT31;67034;43.226;27.932;2023-11-21T11:52:40;22.32;33.54
77839;SHT31;67034;43.226;27.932;2023-11-21T11:55:08;22.53;32.80
77839;SHT31;67034;43.226;27.932;2023-11-21T11:57:36;22.69;32.49
77839;SHT31;67034;43.226;27.932;2023-11-21T12:00:32;22.72;33.35
77839;SHT31;67034;43.226;27.932;2023-11-21T12:03:03;22.81;32.36
77839;SHT31;67034;43.226;27.932;2023-11-21T12:05:30;22.87;32.68
77839;SHT31;67034;43.226;27.932;2023-11-21T12:08:01;23.02;31.85
77839;SHT31;67034;43.226;27.932;2023-11-21T12:10:28;23.27;32.92
77839;SHT31;67034;43.226;27.932;2023-11-21T12:12:55;23.20;34.16
77839;SHT31;67034;43.226;27.932;2023-11-21T12:15:22;22.13;36.29
77839;SHT31;67034;43.226;27.932;2023-11-21T12:17:50;21.44;38.34
77839;SHT31;67034;43.226;27.932;2023-11-21T12:20:18;21.08;39.46
77839;SHT31;67034;43.226;27.932;2023-11-21T12:22:45;21.07;39.78
77839;SHT31;67034;43.226;27.932;2023-11-21T12:25:15;21.68;38.87
77839;SHT31;67034;43.226;27.932;2023-11-21T12:27:42;22.29;37.75
77839;SHT31;67034;43.226;27.932;2023-11-21T12:30:10;22.85;36.49
77839;SHT31;67034;43.226;27.932;2023-11-21T12:32:39;23.36;36.04
77839;SHT31;67034;43.226;27.932;2023-11-21T12:35:08;23.93;35.08
77839;SHT31;67034;43.226;27.932;2023-11-21T12:37:36;23.69;35.07
77839;SHT31;67034;43.226;27.932;2023-11-21T12:40:02;23.66;34.88
77839;SHT31;67034;43.226;27.932;2023-11-21T12:42:28;24.07;34.28
77839;SHT31;67034;43.226;27.932;2023-11-21T12:45:12;24.43;33.43
77839;SHT31;67034;43.226;27.932;2023-11-21T12:47:44;24.17;33.49
77839;SHT31;67034;43.226;27.932;2023-11-21T12:50:14;24.01;33.79
77839;SHT31;67034;43.226;27.932;2023-11-21T12:52:45;24.36;33.13
77839;SHT31;67034;43.226;27.932;2023-11-21T12:55:15;24.77;32.56
77839;SHT31;67034;43.226;27.932;2023-11-21T12:57:42;25.72;31.67
77839;SHT31;67034;43.226;27.932;2023-11-21T13:00:09;26.71;30.69
77839;SHT31;67034;43.226;27.932;2023-11-21T13:02:41;26.99;30.11
77839;SHT31;67034;43.226;27.932;2023-11-21T13:05:09;26.77;30.07
77839;SHT31;67034;43.226;27.932;2023-11-21T13:07:45;25.64;31.47
77839;SHT31;67034;43.226;27.932;2023-11-21T13:10:12;25.10;32.47
77839;SHT31;67034;43.226;27.932;2023-11-21T13:12:43;24.58;32.93
77839;SHT31;67034;43.226;27.932;2023-11-21T13:15:09;23.96;33.98
77839;SHT31;67034;43.226;27.932;2023-11-21T13:17:35;23.53;34.87
77839;SHT31;67034;43.226;27.932;2023-11-21T13:20:01;23.15;35.54
77839;SHT31;67034;43.226;27.932;2023-11-21T13:22:31;22.67;36.29
77839;SHT31;67034;43.226;27.932;2023-11-21T13:25:00;21.95;37.81
77839;SHT31;67034;43.226;27.932;2023-11-21T13:27:25;21.62;38.13
77839;SHT31;67034;43.226;27.932;2023-11-21T13:29:52;21.28;38.85
77839;SHT31;67034;43.226;27.932;2023-11-21T13:32:18;20.99;39.54
77839;SHT31;67034;43.226;27.932;2023-11-21T13:34:46;20.83;39.74
77839;SHT31;67034;43.226;27.932;2023-11-21T13:37:13;20.94;39.80
77839;SHT31;67034;43.226;27.932;2023-11-21T13:39:38;21.01;39.61
77839;SHT31;67034;43.226;27.932;2023-11-21T13:42:11;20.45;40.60
77839;SHT31;67034;43.226;27.932;2023-11-21T13:44:37;20.26;40.39
77839;SHT31;67034;43.226;27.932;2023-11-21T13:47:06;20.00;40.55
77839;SHT31;67034;43.226;27.932;2023-11-21T13:49:32;19.49;40.75
77839;SHT31;67034;43.226;27.932;2023-11-21T13:52:01;18.97;41.17
77839;SHT31;67034;43.226;27.932;2023-11-21T13:54:28;18.65;41.72
77839;SHT31;67034;43.226;27.932;2023-11-21T13:56:55;18.36;42.57
77839;SHT31;67034;43.226;27.932;2023-11-21T13:59:25;18.09;43.43
77839;SHT31;67034;43.226;27.932;2023-11-21T14:01:53;17.61;45.15
77839;SHT31;67034;43.226;27.932;2023-11-21T14:04:21;17.50;45.77
77839;SHT31;67034;43.226;27.932;2023-11-21T14:07:04;17.50;46.01
77839;SHT31;67034;43.226;27.932;2023-11-21T14:09:46;17.52;46.20
77839;SHT31;67034;43.226;27.932;2023-11-21T14:12:12;17.62;46.20
77839;SHT31;67034;43.226;27.932;2023-11-21T14:14:42;17.71;46.83
77839;SHT31;67034;43.226;27.932;2023-11-21T14:17:09;17.78;47.14
77839;SHT31;67034;43.226;27.932;2023-11-21T14:19:36;17.52;47.86
77839;SHT31;67034;43.226;27.932;2023-11-21T14:22:05;17.07;49.48
77839;SHT31;67034;43.226;27.932;2023-11-21T14:24:33;16.96;50.23
77839;SHT31;67034;43.226;27.932;2023-11-21T14:26:58;16.80;50.60
77839;SHT31;67034;43.226;27.932;2023-11-21T14:29:25;16.56;51.57
77839;SHT31;67034;43.226;27.932;2023-11-21T14:31:52;16.53;51.79
77839;SHT31;67034;43.226;27.932;2023-11-21T14:34:21;16.49;52.34
77839;SHT31;67034;43.226;27.932;2023-11-21T14:36:47;16.25;53.18
77839;SHT31;67034;43.226;27.932;2023-11-21T14:39:14;16.08;53.56
77839;SHT31;67034;43.226;27.932;2023-11-21T14:41:52;15.97;53.63
77839;SHT31;67034;43.226;27.932;2023-11-21T14:44:19;16.01;53.62
77839;SHT31;67034;43.226;27.932;2023-11-21T14:46:46;16.11;53.59
77839;SHT31;67034;43.226;27.932;2023-11-21T14:49:16;16.31;53.52
77839;SHT31;67034;43.226;27.932;2023-11-21T14:51:46;16.52;53.32
77839;SHT31;67034;43.226;27.932;2023-11-21T14:54:45;16.31;53.88
77839;SHT31;67034;43.226;27.932;2023-11-21T14:57:23;16.10;54.68
77839;SHT31;67034;43.226;27.932;2023-11-21T14:59:49;16.10;54.71
77839;SHT31;67034;43.226;27.932;2023-11-21T15:02:23;16.05;55.02
77839;SHT31;67034;43.226;27.932;2023-11-21T15:05:10;16.17;55.15
77839;SHT31;67034;43.226;27.932;2023-11-21T15:07:41;16.34;54.97
77839;SHT31;67034;43.226;27.932;2023-11-21T15:10:07;16.53;54.91
77839;SHT31;67034;43.226;27.932;2023-11-21T15:12:40;16.22;55.68
77839;SHT31;67034;43.226;27.932;2023-11-21T15:15:06;15.73;57.25
77839;SHT31;67034;43.226;27.932;2023-11-21T15:17:36;15.46;58.42
77839;SHT31;67034;43.226;27.932;2023-11-21T15:20:03;15.31;58.76
77839;SHT31;67034;43.226;27.932;2023-11-21T15:22:33;15.43;58.98
77839;SHT31;67034;43.226;27.932;2023-11-21T15:24:59;15.59;59.04